Rechercher aéroport 
image banner adimage banner adimage banner ad
image banner ad

KBAB - Beale Afb

Situé à Marysville, United States

ICAO - BAB, IATA - BAB

Données fournies par Airmate  

Information générale

Coordonnées: N39°8'10" W121°26'12"
Élévation : 113 feet MSL.
Variation magnétique : 16° East
Voir autres Aéroports à California

Données opérationnelles

Special qualification required
Heure actuelle UTC:
Heure actuelle locale:
Météo
METAR: KBAB 251056Z AUTO 15005KT 10SM CLR 21/10 A2985 RMK AO2 SLP110 T02070096 $
Voir NOTAMs / SUP AIP / TFR affectant cet aéroport [VIEW]
Fréquences de communication: [VIEW]

Pistes:

Identifiant RWYQFULongueur (ft)Largeur (ft)SurfaceLDA (ft)
15162°12001300CONC
33342°12001300CONC

Coordonnées de l'aéroport

Adresse: Marysville United States

Autres services d'aviation

Écoles de pilotage

Beale Aero Club & Flight Training Center

Beale Aero Club & Flight Training Center

Vue satellite de KBAB